sensor_id;sensor_type;location;lat;lon;timestamp;temperature;humidity
13798;DHT22;6970;51.340;3.240;2022-07-06T00:00:52;16.10;99.90
13798;DHT22;6970;51.340;3.240;2022-07-06T00:03:19;16.10;99.90
13798;DHT22;6970;51.340;3.240;2022-07-06T00:05:48;16.00;99.90
13798;DHT22;6970;51.340;3.240;2022-07-06T00:08:18;15.90;99.90
13798;DHT22;6970;51.340;3.240;2022-07-06T00:10:48;15.90;99.90
13798;DHT22;6970;51.340;3.240;2022-07-06T00:13:17;15.90;99.90
13798;DHT22;6970;51.340;3.240;2022-07-06T00:15:44;15.80;99.90
13798;DHT22;6970;51.340;3.240;2022-07-06T00:18:12;15.80;99.90
13798;DHT22;6970;51.340;3.240;2022-07-06T00:20:41;15.80;99.90
13798;DHT22;6970;51.340;3.240;2022-07-06T00:23:10;15.80;99.90
13798;DHT22;6970;51.340;3.240;2022-07-06T00:25:39;15.80;99.90
13798;DHT22;6970;51.340;3.240;2022-07-06T00:28:07;15.70;99.90
13798;DHT22;6970;51.340;3.240;2022-07-06T00:30:34;15.70;99.90
13798;DHT22;6970;51.340;3.240;2022-07-06T00:33:02;15.70;99.90
13798;DHT22;6970;51.340;3.240;2022-07-06T00:35:32;15.70;99.90
13798;DHT22;6970;51.340;3.240;2022-07-06T00:38:03;15.70;99.90
13798;DHT22;6970;51.340;3.240;2022-07-06T00:40:31;15.70;99.90
13798;DHT22;6970;51.340;3.240;2022-07-06T00:43:01;15.70;99.90
13798;DHT22;6970;51.340;3.240;2022-07-06T00:45:29;15.70;99.90
13798;DHT22;6970;51.340;3.240;2022-07-06T00:47:58;15.70;99.90
13798;DHT22;6970;51.340;3.240;2022-07-06T00:50:25;15.70;99.90
13798;DHT22;6970;51.340;3.240;2022-07-06T00:53:03;15.70;99.90
13798;DHT22;6970;51.340;3.240;2022-07-06T00:55:32;15.70;99.90
13798;DHT22;6970;51.340;3.240;2022-07-06T00:58:03;15.60;99.90
13798;DHT22;6970;51.340;3.240;2022-07-06T01:00:34;15.60;99.90
13798;DHT22;6970;51.340;3.240;2022-07-06T01:03:04;15.50;99.90
13798;DHT22;6970;51.340;3.240;2022-07-06T01:05:33;15.50;99.90
13798;DHT22;6970;51.340;3.240;2022-07-06T01:08:01;15.50;99.90
13798;DHT22;6970;51.340;3.240;2022-07-06T01:10:29;15.50;99.90
13798;DHT22;6970;51.340;3.240;2022-07-06T01:12:58;15.40;99.90
13798;DHT22;6970;51.340;3.240;2022-07-06T01:15:27;15.40;99.90
13798;DHT22;6970;51.340;3.240;2022-07-06T01:17:57;15.50;99.90
13798;DHT22;6970;51.340;3.240;2022-07-06T01:20:25;15.50;99.90
13798;DHT22;6970;51.340;3.240;2022-07-06T01:22:54;15.50;99.90
13798;DHT22;6970;51.340;3.240;2022-07-06T01:25:24;15.50;99.90
13798;DHT22;6970;51.340;3.240;2022-07-06T01:27:54;15.50;99.90
13798;DHT22;6970;51.340;3.240;2022-07-06T01:30:23;15.60;99.90
13798;DHT22;6970;51.340;3.240;2022-07-06T01:32:53;15.60;99.90
13798;DHT22;6970;51.340;3.240;2022-07-06T01:35:23;15.50;99.90
13798;DHT22;6970;51.340;3.240;2022-07-06T01:37:53;15.50;99.90
13798;DHT22;6970;51.340;3.240;2022-07-06T01:40:21;15.50;99.90
13798;DHT22;6970;51.340;3.240;2022-07-06T01:42:51;15.50;99.90
13798;DHT22;6970;51.340;3.240;2022-07-06T01:45:24;15.50;99.90
13798;DHT22;6970;51.340;3.240;2022-07-06T01:47:53;15.50;99.90
13798;DHT22;6970;51.340;3.240;2022-07-06T01:50:20;15.50;99.90
13798;DHT22;6970;51.340;3.240;2022-07-06T01:52:47;15.60;99.90
13798;DHT22;6970;51.340;3.240;2022-07-06T01:55:17;15.60;99.90
13798;DHT22;6970;51.340;3.240;2022-07-06T01:57:47;15.60;99.90
13798;DHT22;6970;51.340;3.240;2022-07-06T02:00:16;15.60;99.90
13798;DHT22;6970;51.340;3.240;2022-07-06T02:02:44;15.50;99.90
13798;DHT22;6970;51.340;3.240;2022-07-06T02:05:11;15.60;99.90
13798;DHT22;6970;51.340;3.240;2022-07-06T02:07:38;15.50;99.90
13798;DHT22;6970;51.340;3.240;2022-07-06T02:10:05;15.50;99.90
13798;DHT22;6970;51.340;3.240;2022-07-06T02:12:35;15.50;99.90
13798;DHT22;6970;51.340;3.240;2022-07-06T02:15:03;15.50;99.90
13798;DHT22;6970;51.340;3.240;2022-07-06T02:17:31;15.50;99.90
13798;DHT22;6970;51.340;3.240;2022-07-06T02:19:58;15.50;99.90
13798;DHT22;6970;51.340;3.240;2022-07-06T02:22:26;15.40;99.90
13798;DHT22;6970;51.340;3.240;2022-07-06T02:24:54;15.40;99.90
13798;DHT22;6970;51.340;3.240;2022-07-06T02:27:21;15.40;99.90
13798;DHT22;6970;51.340;3.240;2022-07-06T02:29:48;15.40;99.90
13798;DHT22;6970;51.340;3.240;2022-07-06T02:32:17;15.40;99.90
13798;DHT22;6970;51.340;3.240;2022-07-06T02:34:45;15.40;99.90
13798;DHT22;6970;51.340;3.240;2022-07-06T02:37:15;15.40;99.90
13798;DHT22;6970;51.340;3.240;2022-07-06T02:39:46;15.40;99.90
13798;DHT22;6970;51.340;3.240;2022-07-06T02:42:16;15.40;99.90
13798;DHT22;6970;51.340;3.240;2022-07-06T02:44:46;15.40;99.90
13798;DHT22;6970;51.340;3.240;2022-07-06T02:47:13;15.40;99.90
13798;DHT22;6970;51.340;3.240;2022-07-06T02:49:43;15.40;99.90
13798;DHT22;6970;51.340;3.240;2022-07-06T02:52:16;15.30;99.90
13798;DHT22;6970;51.340;3.240;2022-07-06T02:54:46;15.30;99.90
13798;DHT22;6970;51.340;3.240;2022-07-06T02:57:16;15.30;99.90
13798;DHT22;6970;51.340;3.240;2022-07-06T02:59:44;15.20;99.90
13798;DHT22;6970;51.340;3.240;2022-07-06T03:02:14;15.20;99.90
13798;DHT22;6970;51.340;3.240;2022-07-06T03:04:42;15.20;99.90
13798;DHT22;6970;51.340;3.240;2022-07-06T03:07:10;15.20;99.90
13798;DHT22;6970;51.340;3.240;2022-07-06T03:09:40;15.20;99.90
13798;DHT22;6970;51.340;3.240;2022-07-06T03:12:08;15.20;99.90
13798;DHT22;6970;51.340;3.240;2022-07-06T03:14:37;15.20;99.90
13798;DHT22;6970;51.340;3.240;2022-07-06T03:17:06;15.20;99.90
13798;DHT22;6970;51.340;3.240;2022-07-06T03:19:37;15.20;99.90
13798;DHT22;6970;51.340;3.240;2022-07-06T03:22:06;15.10;99.90
13798;DHT22;6970;51.340;3.240;2022-07-06T03:24:36;15.10;99.90
13798;DHT22;6970;51.340;3.240;2022-07-06T03:27:03;15.10;99.90
13798;DHT22;6970;51.340;3.240;2022-07-06T03:29:32;15.10;99.90
13798;DHT22;6970;51.340;3.240;2022-07-06T03:31:59;15.10;99.90
13798;DHT22;6970;51.340;3.240;2022-07-06T03:34:26;15.10;99.90
13798;DHT22;6970;51.340;3.240;2022-07-06T03:36:53;15.10;99.90
13798;DHT22;6970;51.340;3.240;2022-07-06T03:39:20;15.10;99.90
13798;DHT22;6970;51.340;3.240;2022-07-06T03:41:48;15.10;99.90
13798;DHT22;6970;51.340;3.240;2022-07-06T03:44:15;15.10;99.90
13798;DHT22;6970;51.340;3.240;2022-07-06T03:46:42;15.10;99.90
13798;DHT22;6970;51.340;3.240;2022-07-06T03:49:09;15.10;99.90
13798;DHT22;6970;51.340;3.240;2022-07-06T03:51:39;15.10;99.90
13798;DHT22;6970;51.340;3.240;2022-07-06T03:54:07;15.10;99.90
13798;DHT22;6970;51.340;3.240;2022-07-06T03:56:37;15.10;99.90
13798;DHT22;6970;51.340;3.240;2022-07-06T03:59:07;15.10;99.90
13798;DHT22;6970;51.340;3.240;2022-07-06T04:01:37;15.10;99.90
13798;DHT22;6970;51.340;3.240;2022-07-06T04:04:04;15.10;99.90
13798;DHT22;6970;51.340;3.240;2022-07-06T04:06:33;15.00;99.90
13798;DHT22;6970;51.340;3.240;2022-07-06T04:09:12;15.00;99.90
13798;DHT22;6970;51.340;3.240;2022-07-06T04:11:45;15.00;99.90
13798;DHT22;6970;51.340;3.240;2022-07-06T04:14:12;15.10;99.90
13798;DHT22;6970;51.340;3.240;2022-07-06T04:16:39;15.10;99.90
13798;DHT22;6970;51.340;3.240;2022-07-06T04:19:06;15.10;99.90
13798;DHT22;6970;51.340;3.240;2022-07-06T04:21:36;15.10;99.90
13798;DHT22;6970;51.340;3.240;2022-07-06T04:24:04;15.10;99.90
13798;DHT22;6970;51.340;3.240;2022-07-06T04:26:34;15.10;99.90
13798;DHT22;6970;51.340;3.240;2022-07-06T04:29:04;15.10;99.90
13798;DHT22;6970;51.340;3.240;2022-07-06T04:31:33;15.10;99.90
13798;DHT22;6970;51.340;3.240;2022-07-06T04:34:00;15.10;99.90
13798;DHT22;6970;51.340;3.240;2022-07-06T04:36:27;15.10;99.90
13798;DHT22;6970;51.340;3.240;2022-07-06T04:38:56;15.10;99.90
13798;DHT22;6970;51.340;3.240;2022-07-06T04:41:24;15.10;99.90
13798;DHT22;6970;51.340;3.240;2022-07-06T04:43:51;15.10;99.90
13798;DHT22;6970;51.340;3.240;2022-07-06T04:46:18;15.10;99.90
13798;DHT22;6970;51.340;3.240;2022-07-06T04:48:46;15.20;99.90
13798;DHT22;6970;51.340;3.240;2022-07-06T04:51:16;15.20;99.90
13798;DHT22;6970;51.340;3.240;2022-07-06T04:53:45;15.20;99.90
13798;DHT22;6970;51.340;3.240;2022-07-06T04:56:14;15.30;99.90
13798;DHT22;6970;51.340;3.240;2022-07-06T04:58:44;15.30;99.90
13798;DHT22;6970;51.340;3.240;2022-07-06T05:01:12;15.40;99.90
13798;DHT22;6970;51.340;3.240;2022-07-06T05:03:39;15.40;99.90
13798;DHT22;6970;51.340;3.240;2022-07-06T05:06:10;15.40;99.90
13798;DHT22;6970;51.340;3.240;2022-07-06T05:08:39;15.40;99.90
13798;DHT22;6970;51.340;3.240;2022-07-06T05:11:07;15.40;99.90
13798;DHT22;6970;51.340;3.240;2022-07-06T05:13:36;15.50;99.90
13798;DHT22;6970;51.340;3.240;2022-07-06T05:16:05;15.50;99.90
13798;DHT22;6970;51.340;3.240;2022-07-06T05:18:36;15.60;99.90
13798;DHT22;6970;51.340;3.240;2022-07-06T05:21:03;15.70;99.90
13798;DHT22;6970;51.340;3.240;2022-07-06T05:23:33;15.80;99.90
13798;DHT22;6970;51.340;3.240;2022-07-06T05:26:01;15.80;99.90
13798;DHT22;6970;51.340;3.240;2022-07-06T05:28:31;15.90;99.90
13798;DHT22;6970;51.340;3.240;2022-07-06T05:31:02;16.00;99.90
13798;DHT22;6970;51.340;3.240;2022-07-06T05:33:29;16.10;99.90
13798;DHT22;6970;51.340;3.240;2022-07-06T05:35:59;16.20;99.90
13798;DHT22;6970;51.340;3.240;2022-07-06T05:38:26;16.30;99.90
13798;DHT22;6970;51.340;3.240;2022-07-06T05:40:56;16.40;99.90
13798;DHT22;6970;51.340;3.240;2022-07-06T05:43:26;16.50;99.90
13798;DHT22;6970;51.340;3.240;2022-07-06T05:45:55;16.60;99.90
13798;DHT22;6970;51.340;3.240;2022-07-06T05:48:24;16.70;99.90
13798;DHT22;6970;51.340;3.240;2022-07-06T05:51:12;16.70;99.90
13798;DHT22;6970;51.340;3.240;2022-07-06T05:53:42;16.80;99.90
13798;DHT22;6970;51.340;3.240;2022-07-06T05:56:12;16.80;99.90
13798;DHT22;6970;51.340;3.240;2022-07-06T05:58:40;16.90;99.90
13798;DHT22;6970;51.340;3.240;2022-07-06T06:01:08;17.00;99.90
13798;DHT22;6970;51.340;3.240;2022-07-06T06:03:36;17.00;99.90
13798;DHT22;6970;51.340;3.240;2022-07-06T06:06:06;17.10;99.90
13798;DHT22;6970;51.340;3.240;2022-07-06T06:08:34;17.20;99.90
13798;DHT22;6970;51.340;3.240;2022-07-06T06:11:04;17.30;99.90
13798;DHT22;6970;51.340;3.240;2022-07-06T06:13:37;17.40;99.90
13798;DHT22;6970;51.340;3.240;2022-07-06T06:16:05;17.40;99.90
13798;DHT22;6970;51.340;3.240;2022-07-06T06:18:34;17.50;99.90
13798;DHT22;6970;51.340;3.240;2022-07-06T06:21:11;17.50;99.90
13798;DHT22;6970;51.340;3.240;2022-07-06T06:23:38;17.60;99.90
13798;DHT22;6970;51.340;3.240;2022-07-06T06:26:05;17.60;99.90
13798;DHT22;6970;51.340;3.240;2022-07-06T06:28:35;17.60;99.90
13798;DHT22;6970;51.340;3.240;2022-07-06T06:31:04;17.60;99.90
13798;DHT22;6970;51.340;3.240;2022-07-06T06:33:35;17.70;99.90
13798;DHT22;6970;51.340;3.240;2022-07-06T06:36:04;17.70;99.90
13798;DHT22;6970;51.340;3.240;2022-07-06T06:38:31;17.80;99.90
13798;DHT22;6970;51.340;3.240;2022-07-06T06:41:00;17.90;99.90
13798;DHT22;6970;51.340;3.240;2022-07-06T06:43:30;18.00;99.90
13798;DHT22;6970;51.340;3.240;2022-07-06T06:46:00;18.00;99.90
13798;DHT22;6970;51.340;3.240;2022-07-06T06:48:27;18.20;99.90
13798;DHT22;6970;51.340;3.240;2022-07-06T06:50:57;18.30;99.90
13798;DHT22;6970;51.340;3.240;2022-07-06T06:53:25;18.40;99.90
13798;DHT22;6970;51.340;3.240;2022-07-06T06:55:53;18.40;99.90
13798;DHT22;6970;51.340;3.240;2022-07-06T06:58:23;18.50;99.90
13798;DHT22;6970;51.340;3.240;2022-07-06T07:00:53;18.40;99.90
13798;DHT22;6970;51.340;3.240;2022-07-06T07:03:20;18.50;99.90
13798;DHT22;6970;51.340;3.240;2022-07-06T07:05:48;18.60;99.70
13798;DHT22;6970;51.340;3.240;2022-07-06T07:08:19;18.60;99.50
13798;DHT22;6970;51.340;3.240;2022-07-06T07:10:48;18.70;99.70
13798;DHT22;6970;51.340;3.240;2022-07-06T07:13:18;18.90;99.70
13798;DHT22;6970;51.340;3.240;2022-07-06T07:15:53;19.00;99.30
13798;DHT22;6970;51.340;3.240;2022-07-06T07:18:21;19.30;98.90
13798;DHT22;6970;51.340;3.240;2022-07-06T07:20:49;19.50;98.50
13798;DHT22;6970;51.340;3.240;2022-07-06T07:23:17;19.60;97.90
13798;DHT22;6970;51.340;3.240;2022-07-06T07:25:46;19.70;97.00
13798;DHT22;6970;51.340;3.240;2022-07-06T07:28:13;19.80;97.00
13798;DHT22;6970;51.340;3.240;2022-07-06T07:30:44;19.90;97.00
13798;DHT22;6970;51.340;3.240;2022-07-06T07:33:11;20.10;96.20
13798;DHT22;6970;51.340;3.240;2022-07-06T07:35:38;20.20;96.00
13798;DHT22;6970;51.340;3.240;2022-07-06T07:38:06;20.50;95.70
13798;DHT22;6970;51.340;3.240;2022-07-06T07:40:33;20.70;95.30
13798;DHT22;6970;51.340;3.240;2022-07-06T07:43:03;21.00;95.10
13798;DHT22;6970;51.340;3.240;2022-07-06T07:45:32;21.10;94.00
13798;DHT22;6970;51.340;3.240;2022-07-06T07:47:59;21.10;94.20
13798;DHT22;6970;51.340;3.240;2022-07-06T07:50:30;21.20;94.10
13798;DHT22;6970;51.340;3.240;2022-07-06T07:53:00;21.20;93.70
13798;DHT22;6970;51.340;3.240;2022-07-06T07:55:28;21.20;93.70
13798;DHT22;6970;51.340;3.240;2022-07-06T07:58:07;21.20;93.70
13798;DHT22;6970;51.340;3.240;2022-07-06T08:00:36;21.20;93.80
13798;DHT22;6970;51.340;3.240;2022-07-06T08:03:06;21.10;93.90
13798;DHT22;6970;51.340;3.240;2022-07-06T08:05:37;21.00;94.00
13798;DHT22;6970;51.340;3.240;2022-07-06T08:08:10;21.20;94.10
13798;DHT22;6970;51.340;3.240;2022-07-06T08:10:40;21.30;94.00
13798;DHT22;6970;51.340;3.240;2022-07-06T08:13:29;21.40;93.70
13798;DHT22;6970;51.340;3.240;2022-07-06T08:15:57;21.50;93.60
13798;DHT22;6970;51.340;3.240;2022-07-06T08:18:27;21.50;93.50
13798;DHT22;6970;51.340;3.240;2022-07-06T08:20:59;21.50;93.50
13798;DHT22;6970;51.340;3.240;2022-07-06T08:23:50;21.60;93.50
13798;DHT22;6970;51.340;3.240;2022-07-06T08:26:17;21.70;93.40
13798;DHT22;6970;51.340;3.240;2022-07-06T08:28:44;21.60;93.20
13798;DHT22;6970;51.340;3.240;2022-07-06T08:31:14;21.50;93.10
13798;DHT22;6970;51.340;3.240;2022-07-06T08:34:03;21.50;93.10
13798;DHT22;6970;51.340;3.240;2022-07-06T08:36:32;21.70;93.40
13798;DHT22;6970;51.340;3.240;2022-07-06T08:39:02;21.90;93.00
13798;DHT22;6970;51.340;3.240;2022-07-06T08:41:34;22.30;92.80
13798;DHT22;6970;51.340;3.240;2022-07-06T08:44:06;22.60;92.60
13798;DHT22;6970;51.340;3.240;2022-07-06T08:46:37;22.90;91.90
13798;DHT22;6970;51.340;3.240;2022-07-06T08:49:08;23.00;91.40
13798;DHT22;6970;51.340;3.240;2022-07-06T08:51:36;23.10;91.10
13798;DHT22;6970;51.340;3.240;2022-07-06T08:54:04;23.00;90.80
13798;DHT22;6970;51.340;3.240;2022-07-06T08:56:32;23.00;91.00
13798;DHT22;6970;51.340;3.240;2022-07-06T08:59:00;22.90;91.00
13798;DHT22;6970;51.340;3.240;2022-07-06T09:01:30;22.80;91.00
13798;DHT22;6970;51.340;3.240;2022-07-06T09:03:58;22.80;91.00
13798;DHT22;6970;51.340;3.240;2022-07-06T09:06:27;22.70;91.00
13798;DHT22;6970;51.340;3.240;2022-07-06T09:08:57;22.60;90.70
13798;DHT22;6970;51.340;3.240;2022-07-06T09:11:28;22.30;90.80
13798;DHT22;6970;51.340;3.240;2022-07-06T09:13:58;22.20;91.00
13798;DHT22;6970;51.340;3.240;2022-07-06T09:16:28;22.20;91.30
13798;DHT22;6970;51.340;3.240;2022-07-06T09:19:07;22.30;91.20
13798;DHT22;6970;51.340;3.240;2022-07-06T09:21:38;22.40;90.90
13798;DHT22;6970;51.340;3.240;2022-07-06T09:24:12;22.40;90.90
13798;DHT22;6970;51.340;3.240;2022-07-06T09:26:41;22.50;90.90
13798;DHT22;6970;51.340;3.240;2022-07-06T09:29:10;22.50;90.70
13798;DHT22;6970;51.340;3.240;2022-07-06T09:31:38;22.60;90.50
13798;DHT22;6970;51.340;3.240;2022-07-06T09:34:08;22.70;90.30
13798;DHT22;6970;51.340;3.240;2022-07-06T09:36:45;22.90;90.20
13798;DHT22;6970;51.340;3.240;2022-07-06T09:41:54;23.00;89.30
13798;DHT22;6970;51.340;3.240;2022-07-06T09:44:28;23.10;89.60
13798;DHT22;6970;51.340;3.240;2022-07-06T09:47:01;23.10;89.50
13798;DHT22;6970;51.340;3.240;2022-07-06T09:49:28;23.40;89.00
13798;DHT22;6970;51.340;3.240;2022-07-06T09:52:00;23.70;87.70
13798;DHT22;6970;51.340;3.240;2022-07-06T09:54:28;24.10;88.20
13798;DHT22;6970;51.340;3.240;2022-07-06T09:56:58;24.70;86.50
13798;DHT22;6970;51.340;3.240;2022-07-06T09:59:35;25.30;84.60
13798;DHT22;6970;51.340;3.240;2022-07-06T10:02:07;25.70;81.60
13798;DHT22;6970;51.340;3.240;2022-07-06T10:04:34;25.90;81.30
13798;DHT22;6970;51.340;3.240;2022-07-06T10:07:16;26.10;81.80
13798;DHT22;6970;51.340;3.240;2022-07-06T10:09:47;26.20;80.90
13798;DHT22;6970;51.340;3.240;2022-07-06T10:12:17;26.30;81.20
13798;DHT22;6970;51.340;3.240;2022-07-06T10:14:48;26.50;80.90
13798;DHT22;6970;51.340;3.240;2022-07-06T10:17:20;26.60;79.40
13798;DHT22;6970;51.340;3.240;2022-07-06T10:19:50;26.70;78.90
13798;DHT22;6970;51.340;3.240;2022-07-06T10:22:20;26.90;78.80
13798;DHT22;6970;51.340;3.240;2022-07-06T10:24:50;27.10;77.90
13798;DHT22;6970;51.340;3.240;2022-07-06T10:27:21;27.50;78.50
13798;DHT22;6970;51.340;3.240;2022-07-06T10:29:53;27.80;77.00
13798;DHT22;6970;51.340;3.240;2022-07-06T10:32:23;28.20;76.70
13798;DHT22;6970;51.340;3.240;2022-07-06T10:34:54;28.60;76.10
13798;DHT22;6970;51.340;3.240;2022-07-06T10:37:27;28.90;75.40
13798;DHT22;6970;51.340;3.240;2022-07-06T10:40:02;28.90;73.20
13798;DHT22;6970;51.340;3.240;2022-07-06T10:42:55;28.90;73.30
13798;DHT22;6970;51.340;3.240;2022-07-06T10:53:21;29.30;72.60
13798;DHT22;6970;51.340;3.240;2022-07-06T10:55:53;29.40;71.10
13798;DHT22;6970;51.340;3.240;2022-07-06T10:58:40;29.60;70.70
13798;DHT22;6970;51.340;3.240;2022-07-06T11:01:11;29.50;68.90
13798;DHT22;6970;51.340;3.240;2022-07-06T11:03:45;29.70;69.60
13798;DHT22;6970;51.340;3.240;2022-07-06T11:06:21;29.90;68.90
13798;DHT22;6970;51.340;3.240;2022-07-06T11:09:06;30.10;69.10
13798;DHT22;6970;51.340;3.240;2022-07-06T11:14:14;30.40;67.60
13798;DHT22;6970;51.340;3.240;2022-07-06T11:19:23;30.60;67.80
13798;DHT22;6970;51.340;3.240;2022-07-06T11:21:56;30.60;68.70
13798;DHT22;6970;51.340;3.240;2022-07-06T11:24:34;30.50;70.70
13798;DHT22;6970;51.340;3.240;2022-07-06T11:27:05;30.40;71.80
13798;DHT22;6970;51.340;3.240;2022-07-06T11:29:36;30.20;72.60
13798;DHT22;6970;51.340;3.240;2022-07-06T11:32:07;30.10;73.90
13798;DHT22;6970;51.340;3.240;2022-07-06T11:34:42;30.00;73.80
13798;DHT22;6970;51.340;3.240;2022-07-06T11:37:19;30.00;74.70
13798;DHT22;6970;51.340;3.240;2022-07-06T11:39:49;30.00;74.00
13798;DHT22;6970;51.340;3.240;2022-07-06T11:42:22;29.90;74.50
13798;DHT22;6970;51.340;3.240;2022-07-06T11:44:53;29.90;75.00
13798;DHT22;6970;51.340;3.240;2022-07-06T11:47:20;29.70;75.30
13798;DHT22;6970;51.340;3.240;2022-07-06T11:49:53;29.60;75.70
13798;DHT22;6970;51.340;3.240;2022-07-06T11:52:21;29.40;75.90
13798;DHT22;6970;51.340;3.240;2022-07-06T11:54:58;29.30;76.30
13798;DHT22;6970;51.340;3.240;2022-07-06T11:57:30;29.10;75.60
13798;DHT22;6970;51.340;3.240;2022-07-06T12:00:01;29.10;75.80
13798;DHT22;6970;51.340;3.240;2022-07-06T12:02:29;28.90;75.70
13798;DHT22;6970;51.340;3.240;2022-07-06T12:04:56;28.90;75.70
13798;DHT22;6970;51.340;3.240;2022-07-06T12:07:29;28.80;76.10
13798;DHT22;6970;51.340;3.240;2022-07-06T12:09:57;28.60;76.20
13798;DHT22;6970;51.340;3.240;2022-07-06T12:12:26;28.50;76.50
13798;DHT22;6970;51.340;3.240;2022-07-06T12:14:54;28.50;76.60
13798;DHT22;6970;51.340;3.240;2022-07-06T12:17:22;28.40;76.50
13798;DHT22;6970;51.340;3.240;2022-07-06T12:19:53;28.40;76.80
13798;DHT22;6970;51.340;3.240;2022-07-06T12:22:29;28.40;76.10
13798;DHT22;6970;51.340;3.240;2022-07-06T12:25:00;28.30;76.00
13798;DHT22;6970;51.340;3.240;2022-07-06T12:27:34;28.20;76.70
13798;DHT22;6970;51.340;3.240;2022-07-06T12:30:12;28.30;76.80
13798;DHT22;6970;51.340;3.240;2022-07-06T12:32:46;28.10;77.50
13798;DHT22;6970;51.340;3.240;2022-07-06T12:35:13;28.00;77.30
13798;DHT22;6970;51.340;3.240;2022-07-06T12:37:54;27.90;76.60
13798;DHT22;6970;51.340;3.240;2022-07-06T12:40:26;28.00;77.20
13798;DHT22;6970;51.340;3.240;2022-07-06T12:42:55;28.00;77.80
13798;DHT22;6970;51.340;3.240;2022-07-06T12:45:30;27.90;78.00
13798;DHT22;6970;51.340;3.240;2022-07-06T12:48:03;27.80;78.80
13798;DHT22;6970;51.340;3.240;2022-07-06T12:50:36;27.80;78.10
13798;DHT22;6970;51.340;3.240;2022-07-06T12:53:23;27.80;77.60
13798;DHT22;6970;51.340;3.240;2022-07-06T12:56:14;27.90;77.10
13798;DHT22;6970;51.340;3.240;2022-07-06T12:59:20;27.70;77.30
13798;DHT22;6970;51.340;3.240;2022-07-06T13:01:53;27.90;77.90
13798;DHT22;6970;51.340;3.240;2022-07-06T13:04:29;27.90;77.90
13798;DHT22;6970;51.340;3.240;2022-07-06T13:07:01;28.00;78.20
13798;DHT22;6970;51.340;3.240;2022-07-06T13:09:34;28.00;78.90
13798;DHT22;6970;51.340;3.240;2022-07-06T13:12:01;28.00;79.60
13798;DHT22;6970;51.340;3.240;2022-07-06T13:14:29;28.00;79.70
13798;DHT22;6970;51.340;3.240;2022-07-06T13:17:02;28.00;80.00
13798;DHT22;6970;51.340;3.240;2022-07-06T13:19:33;28.00;80.60
13798;DHT22;6970;51.340;3.240;2022-07-06T13:22:01;28.00;78.60
13798;DHT22;6970;51.340;3.240;2022-07-06T13:24:28;28.10;78.50
13798;DHT22;6970;51.340;3.240;2022-07-06T13:26:58;28.00;78.20
13798;DHT22;6970;51.340;3.240;2022-07-06T13:29:25;27.90;78.30
13798;DHT22;6970;51.340;3.240;2022-07-06T13:31:55;27.90;78.60
13798;DHT22;6970;51.340;3.240;2022-07-06T13:34:23;27.80;77.20
13798;DHT22;6970;51.340;3.240;2022-07-06T13:36:51;27.70;75.40
13798;DHT22;6970;51.340;3.240;2022-07-06T13:39:19;27.60;75.80
13798;DHT22;6970;51.340;3.240;2022-07-06T13:41:46;27.50;76.60
13798;DHT22;6970;51.340;3.240;2022-07-06T13:44:13;27.50;76.60
13798;DHT22;6970;51.340;3.240;2022-07-06T13:46:44;27.40;75.60
13798;DHT22;6970;51.340;3.240;2022-07-06T13:49:13;27.50;77.50
13798;DHT22;6970;51.340;3.240;2022-07-06T13:51:40;27.40;77.90
13798;DHT22;6970;51.340;3.240;2022-07-06T13:54:14;27.30;77.70
13798;DHT22;6970;51.340;3.240;2022-07-06T13:56:44;27.10;77.30
13798;DHT22;6970;51.340;3.240;2022-07-06T13:59:11;27.10;76.90
13798;DHT22;6970;51.340;3.240;2022-07-06T14:01:41;27.20;75.30
13798;DHT22;6970;51.340;3.240;2022-07-06T14:04:08;27.20;75.00
13798;DHT22;6970;51.340;3.240;2022-07-06T14:06:36;27.20;76.60
13798;DHT22;6970;51.340;3.240;2022-07-06T14:09:03;27.10;77.20
13798;DHT22;6970;51.340;3.240;2022-07-06T14:11:30;26.90;76.00
13798;DHT22;6970;51.340;3.240;2022-07-06T14:13:58;26.70;77.30
13798;DHT22;6970;51.340;3.240;2022-07-06T14:16:26;26.70;78.70
13798;DHT22;6970;51.340;3.240;2022-07-06T14:18:53;26.70;78.50
13798;DHT22;6970;51.340;3.240;2022-07-06T14:21:23;26.70;79.10
13798;DHT22;6970;51.340;3.240;2022-07-06T14:23:53;26.70;80.00
13798;DHT22;6970;51.340;3.240;2022-07-06T14:26:23;26.60;80.90
13798;DHT22;6970;51.340;3.240;2022-07-06T14:28:51;26.60;80.70
13798;DHT22;6970;51.340;3.240;2022-07-06T14:31:18;26.50;81.10
13798;DHT22;6970;51.340;3.240;2022-07-06T14:33:49;26.50;81.40
13798;DHT22;6970;51.340;3.240;2022-07-06T14:36:19;26.60;81.50
13798;DHT22;6970;51.340;3.240;2022-07-06T14:38:46;26.60;81.60
13798;DHT22;6970;51.340;3.240;2022-07-06T14:41:16;26.40;82.20
13798;DHT22;6970;51.340;3.240;2022-07-06T14:43:47;26.50;82.30
13798;DHT22;6970;51.340;3.240;2022-07-06T14:46:16;26.70;82.30
13798;DHT22;6970;51.340;3.240;2022-07-06T14:48:46;26.70;82.40
13798;DHT22;6970;51.340;3.240;2022-07-06T14:51:14;26.70;83.30
13798;DHT22;6970;51.340;3.240;2022-07-06T14:53:44;26.70;82.70
13798;DHT22;6970;51.340;3.240;2022-07-06T14:56:17;26.70;82.90
13798;DHT22;6970;51.340;3.240;2022-07-06T14:58:45;26.80;82.60
13798;DHT22;6970;51.340;3.240;2022-07-06T15:01:33;26.90;82.90
13798;DHT22;6970;51.340;3.240;2022-07-06T15:04:00;26.80;82.80
13798;DHT22;6970;51.340;3.240;2022-07-06T15:06:29;26.80;82.70
13798;DHT22;6970;51.340;3.240;2022-07-06T15:09:19;26.50;82.90
13798;DHT22;6970;51.340;3.240;2022-07-06T15:11:46;26.50;83.20
13798;DHT22;6970;51.340;3.240;2022-07-06T15:14:16;26.40;83.50
13798;DHT22;6970;51.340;3.240;2022-07-06T15:16:45;26.50;83.80
13798;DHT22;6970;51.340;3.240;2022-07-06T15:19:13;26.60;83.30
13798;DHT22;6970;51.340;3.240;2022-07-06T15:21:40;26.70;83.20
13798;DHT22;6970;51.340;3.240;2022-07-06T15:24:07;26.70;83.20
13798;DHT22;6970;51.340;3.240;2022-07-06T15:26:38;26.80;83.40
13798;DHT22;6970;51.340;3.240;2022-07-06T15:29:07;26.80;83.20
13798;DHT22;6970;51.340;3.240;2022-07-06T15:31:37;26.80;82.50
13798;DHT22;6970;51.340;3.240;2022-07-06T15:34:06;26.80;83.00
13798;DHT22;6970;51.340;3.240;2022-07-06T15:36:35;26.70;83.20
13798;DHT22;6970;51.340;3.240;2022-07-06T15:39:03;26.60;83.60
13798;DHT22;6970;51.340;3.240;2022-07-06T15:41:32;26.60;83.70
13798;DHT22;6970;51.340;3.240;2022-07-06T15:44:03;26.40;84.00
13798;DHT22;6970;51.340;3.240;2022-07-06T15:46:30;26.20;84.60
13798;DHT22;6970;51.340;3.240;2022-07-06T15:48:59;26.20;85.00
13798;DHT22;6970;51.340;3.240;2022-07-06T15:51:30;26.10;85.10
13798;DHT22;6970;51.340;3.240;2022-07-06T15:54:00;26.10;85.40
13798;DHT22;6970;51.340;3.240;2022-07-06T15:56:30;25.90;86.00
13798;DHT22;6970;51.340;3.240;2022-07-06T15:59:00;25.80;86.40
13798;DHT22;6970;51.340;3.240;2022-07-06T16:01:42;25.80;86.80
13798;DHT22;6970;51.340;3.240;2022-07-06T16:04:11;25.60;87.20
13798;DHT22;6970;51.340;3.240;2022-07-06T16:06:40;25.40;88.30
13798;DHT22;6970;51.340;3.240;2022-07-06T16:09:30;25.40;88.60
13798;DHT22;6970;51.340;3.240;2022-07-06T16:12:00;25.30;88.80
13798;DHT22;6970;51.340;3.240;2022-07-06T16:14:27;25.20;89.20
13798;DHT22;6970;51.340;3.240;2022-07-06T16:16:57;25.20;89.60
13798;DHT22;6970;51.340;3.240;2022-07-06T16:19:29;25.20;89.70